createdAt,value
2018-02-18T00:01:11.552Z,71.70
2018-02-18T00:03:40.445Z,71.70
2018-02-18T00:06:16.489Z,71.40
2018-02-18T00:08:44.572Z,71.40
2018-02-18T00:11:13.426Z,71.60
2018-02-18T00:13:42.652Z,71.80
2018-02-18T00:16:10.435Z,71.80
2018-02-18T00:18:39.806Z,72.00
2018-02-18T00:21:08.093Z,72.00
2018-02-18T00:23:36.435Z,71.90
2018-02-18T00:26:05.246Z,72.00
2018-02-18T00:28:33.265Z,72.00
2018-02-18T00:31:01.561Z,72.10
2018-02-18T00:33:29.958Z,72.20
2018-02-18T00:35:57.778Z,72.20
2018-02-18T00:38:25.547Z,71.90
2018-02-18T00:40:53.488Z,71.80
2018-02-18T00:43:21.208Z,72.10
2018-02-18T00:45:49.080Z,72.20
2018-02-18T00:48:16.842Z,72.20
2018-02-18T00:50:45.469Z,72.20
2018-02-18T00:53:14.129Z,72.20
2018-02-18T00:55:41.888Z,72.30
2018-02-18T00:58:10.875Z,72.40
2018-02-18T01:00:38.681Z,72.50
2018-02-18T01:03:07.283Z,72.50
2018-02-18T01:05:35.761Z,72.50
2018-02-18T01:08:05.283Z,72.50
2018-02-18T01:10:33.186Z,72.50
2018-02-18T01:13:01.286Z,72.30
2018-02-18T01:15:29.888Z,72.30
2018-02-18T01:17:58.365Z,72.50
2018-02-18T01:20:26.559Z,72.50
2018-02-18T01:22:54.564Z,72.50
2018-02-18T01:25:23.706Z,72.40
2018-02-18T01:27:51.646Z,73.10
2018-02-18T01:30:19.709Z,72.20
2018-02-18T01:32:47.880Z,72.20
2018-02-18T01:35:15.544Z,72.90
2018-02-18T01:37:44.096Z,72.20
2018-02-18T01:40:11.768Z,72.10
2018-02-18T01:42:39.578Z,72.30
2018-02-18T01:45:07.990Z,72.50
2018-02-18T01:47:36.038Z,72.30
2018-02-18T01:50:16.524Z,72.20
2018-02-18T01:52:44.275Z,72.10
2018-02-18T01:55:12.917Z,72.30
2018-02-18T01:57:41.607Z,72.20
2018-02-18T02:00:09.555Z,72.30
2018-02-18T02:02:37.671Z,73.10
2018-02-18T02:05:06.005Z,72.30
2018-02-18T02:07:33.992Z,72.10
2018-02-18T02:10:01.872Z,72.10
2018-02-18T02:12:29.975Z,72.40
2018-02-18T02:14:58.649Z,72.70
2018-02-18T02:17:26.640Z,72.70
2018-02-18T02:19:54.983Z,72.90
2018-02-18T02:22:22.728Z,73.10
2018-02-18T02:24:51.599Z,72.90
2018-02-18T02:27:19.638Z,72.90
2018-02-18T02:29:47.859Z,72.90
2018-02-18T02:32:15.621Z,72.90
2018-02-18T02:34:43.421Z,72.80
2018-02-18T02:37:11.961Z,73.00
2018-02-18T02:39:39.812Z,73.00
2018-02-18T02:42:07.500Z,72.90
2018-02-18T02:44:35.221Z,72.90
2018-02-18T02:47:03.752Z,73.00
2018-02-18T02:49:31.610Z,73.00
2018-02-18T02:52:00.330Z,72.70
2018-02-18T02:54:28.910Z,72.90
2018-02-18T02:56:57.462Z,73.20
2018-02-18T02:59:25.208Z,73.20
2018-02-18T03:01:53.518Z,73.10
2018-02-18T03:04:21.680Z,73.10
2018-02-18T03:06:49.928Z,73.00
2018-02-18T03:09:17.712Z,73.10
2018-02-18T03:11:45.512Z,73.00
2018-02-18T03:14:13.983Z,72.90
2018-02-18T03:16:43.023Z,73.10
2018-02-18T03:19:11.532Z,73.10
2018-02-18T03:21:39.338Z,73.00
2018-02-18T03:24:07.457Z,73.20
2018-02-18T03:26:35.216Z,73.30
2018-02-18T03:29:02.955Z,73.20
2018-02-18T03:31:30.639Z,73.20
2018-02-18T03:33:59.382Z,73.00
2018-02-18T03:36:27.121Z,73.00
2018-02-18T03:38:54.865Z,72.90
2018-02-18T03:41:22.828Z,73.00
2018-02-18T03:43:50.569Z,72.90
2018-02-18T03:46:18.365Z,73.00
2018-02-18T03:48:46.303Z,72.80
2018-02-18T03:51:14.186Z,73.00
2018-02-18T03:53:41.889Z,73.00
2018-02-18T03:56:09.575Z,73.00
2018-02-18T03:58:37.352Z,73.10
2018-02-18T04:01:05.055Z,73.10
2018-02-18T04:03:32.770Z,73.30
2018-02-18T04:06:01.325Z,73.20
2018-02-18T04:08:29.806Z,72.80
2018-02-18T04:10:58.316Z,72.80
2018-02-18T04:13:26.932Z,72.80
2018-02-18T04:15:54.920Z,72.70
2018-02-18T04:18:23.410Z,72.70
2018-02-18T04:20:52.031Z,72.60
2018-02-18T04:23:19.734Z,72.60
2018-02-18T04:25:47.390Z,72.60
2018-02-18T04:28:15.102Z,72.60
2018-02-18T04:30:42.868Z,72.80
2018-02-18T04:33:10.671Z,72.80
2018-02-18T04:35:38.660Z,72.60
2018-02-18T04:38:06.363Z,72.40
2018-02-18T04:40:35.376Z,72.60
2018-02-18T04:43:03.178Z,72.60
2018-02-18T04:45:30.934Z,72.70
2018-02-18T04:47:58.899Z,72.80
2018-02-18T04:50:26.788Z,73.10
2018-02-18T04:52:54.711Z,73.20
2018-02-18T04:55:22.620Z,73.20
2018-02-18T04:57:50.470Z,73.90
2018-02-18T05:00:19.075Z,73.00
2018-02-18T05:02:48.392Z,73.10
2018-02-18T05:05:17.145Z,73.30
2018-02-18T05:07:44.986Z,73.30
2018-02-18T05:10:13.205Z,73.50
2018-02-18T05:12:41.330Z,73.10
2018-02-18T05:15:10.283Z,73.20
2018-02-18T05:17:38.018Z,73.30
2018-02-18T05:20:05.690Z,73.40
2018-02-18T05:22:33.348Z,73.30
2018-02-18T05:25:02.172Z,73.50
2018-02-18T05:27:29.994Z,73.20
2018-02-18T05:29:58.720Z,73.00
2018-02-18T05:32:26.501Z,73.10
2018-02-18T05:34:54.277Z,73.10
2018-02-18T05:37:22.279Z,73.30
2018-02-18T05:39:50.019Z,73.20
2018-02-18T05:42:18.169Z,73.30
2018-02-18T05:44:46.791Z,73.50
2018-02-18T05:47:14.724Z,73.50
2018-02-18T05:49:44.680Z,73.60
2018-02-18T05:52:12.677Z,73.50
2018-02-18T05:54:40.721Z,73.30
2018-02-18T05:57:08.982Z,73.30
2018-02-18T05:59:38.157Z,73.60
2018-02-18T06:02:07.127Z,73.80
2018-02-18T06:04:35.678Z,73.50
2018-02-18T06:07:03.458Z,73.50
2018-02-18T06:09:31.914Z,73.20
2018-02-18T06:11:59.613Z,73.20
2018-02-18T06:14:27.359Z,73.20
2018-02-18T06:16:55.577Z,73.50
2018-02-18T06:19:23.335Z,73.70
2018-02-18T06:21:51.065Z,73.80
2018-02-18T06:24:18.733Z,73.70
2018-02-18T06:26:47.253Z,73.30
2018-02-18T06:29:14.924Z,73.30
2018-02-18T06:31:42.800Z,73.10
2018-02-18T06:34:10.500Z,72.70
2018-02-18T06:36:39.030Z,73.70
2018-02-18T06:39:06.772Z,72.80
2018-02-18T06:41:34.599Z,72.70
2018-02-18T06:44:02.257Z,72.90
2018-02-18T06:46:30.169Z,72.60
2018-02-18T06:48:58.809Z,72.40
2018-02-18T06:51:26.465Z,72.30
2018-02-18T06:53:54.725Z,72.30
2018-02-18T06:56:22.463Z,72.20
2018-02-18T06:58:50.901Z,72.30
2018-02-18T07:01:19.578Z,72.30
2018-02-18T07:03:47.276Z,71.80
2018-02-18T07:06:14.964Z,71.50
2018-02-18T07:08:42.636Z,71.90
2018-02-18T07:11:10.703Z,71.60
2018-02-18T07:13:39.421Z,71.70
2018-02-18T07:16:07.121Z,71.80
2018-02-18T07:18:35.412Z,71.80
2018-02-18T07:21:03.365Z,71.80
2018-02-18T07:23:31.110Z,71.70
2018-02-18T07:26:00.011Z,71.70
2018-02-18T07:28:28.508Z,71.90
2018-02-18T07:30:56.230Z,71.90
2018-02-18T07:33:23.873Z,71.90
2018-02-18T07:35:51.585Z,71.40
2018-02-18T07:38:19.753Z,71.60
2018-02-18T07:40:47.789Z,71.50
2018-02-18T07:43:15.816Z,71.50
2018-02-18T07:45:43.556Z,71.50
2018-02-18T07:48:11.310Z,71.10
2018-02-18T07:50:39.925Z,71.40
2018-02-18T07:53:07.661Z,71.30
2018-02-18T07:55:36.306Z,71.40
2018-02-18T07:58:04.199Z,71.40
2018-02-18T08:00:32.052Z,71.50
2018-02-18T08:03:00.062Z,71.10
2018-02-18T08:05:28.635Z,71.70
2018-02-18T08:07:56.634Z,70.90
2018-02-18T08:10:24.425Z,70.80
2018-02-18T08:12:52.197Z,71.00
2018-02-18T08:15:19.878Z,70.60
2018-02-18T08:17:53.531Z,70.00
2018-02-18T08:20:21.227Z,70.00
2018-02-18T08:22:48.934Z,70.10
2018-02-18T08:25:16.675Z,69.70
2018-02-18T08:27:46.039Z,69.80
2018-02-18T08:30:14.523Z,69.80
2018-02-18T08:32:42.576Z,69.60
2018-02-18T08:35:10.293Z,69.60
2018-02-18T08:37:38.724Z,68.80
2018-02-18T08:40:06.460Z,68.80
2018-02-18T08:42:34.146Z,68.80
2018-02-18T08:45:01.893Z,68.60
2018-02-18T08:47:29.569Z,69.00
2018-02-18T08:49:57.442Z,68.70
2018-02-18T08:52:25.671Z,68.60
2018-02-18T08:54:53.345Z,68.50
2018-02-18T08:57:21.075Z,68.40
2018-02-18T08:59:48.796Z,67.70
2018-02-18T09:02:16.544Z,68.20
2018-02-18T09:04:45.370Z,68.10
2018-02-18T09:07:13.327Z,68.10
2018-02-18T09:09:41.810Z,67.60
2018-02-18T09:12:11.422Z,66.60
2018-02-18T09:14:39.455Z,66.60
2018-02-18T09:17:13.730Z,67.00
2018-02-18T09:19:41.389Z,66.80
2018-02-18T09:22:09.302Z,66.40
2018-02-18T09:24:37.072Z,66.40
2018-02-18T09:27:04.844Z,66.60
2018-02-18T09:29:32.551Z,67.10
2018-02-18T09:32:01.178Z,65.50
2018-02-18T09:34:29.170Z,65.50
2018-02-18T09:36:56.840Z,65.40
2018-02-18T09:39:24.512Z,65.30
2018-02-18T09:41:52.224Z,65.60
2018-02-18T09:44:19.964Z,66.10
2018-02-18T09:46:48.393Z,65.10
2018-02-18T09:49:16.117Z,65.10
2018-02-18T09:51:44.150Z,64.00
2018-02-18T09:54:13.155Z,64.30
2018-02-18T09:56:40.841Z,63.60
2018-02-18T09:59:09.378Z,62.90
2018-02-18T10:01:37.774Z,62.90
2018-02-18T10:04:05.663Z,61.40
2018-02-18T10:06:33.557Z,61.70
2018-02-18T10:09:01.254Z,61.80
2018-02-18T10:11:28.978Z,59.80
2018-02-18T10:13:56.687Z,59.10
2018-02-18T10:16:24.376Z,56.60
2018-02-18T10:18:52.831Z,52.20
2018-02-18T10:21:22.807Z,52.20
2018-02-18T10:23:50.500Z,49.50
2018-02-18T10:26:19.231Z,48.10
2018-02-18T10:28:47.861Z,44.10
2018-02-18T10:31:16.058Z,44.10
2018-02-18T10:33:43.798Z,41.40
2018-02-18T10:36:12.004Z,42.70
2018-02-18T10:38:40.471Z,40.10
2018-02-18T10:41:08.254Z,41.20
2018-02-18T10:43:35.925Z,41.00
2018-02-18T10:46:03.741Z,39.50
2018-02-18T10:48:31.454Z,35.20
2018-02-18T10:50:59.901Z,38.30
2018-02-18T10:53:27.854Z,38.30
2018-02-18T10:55:56.040Z,39.00
2018-02-18T10:58:23.773Z,37.90
2018-02-18T11:00:51.514Z,37.80
2018-02-18T11:03:19.246Z,34.60
2018-02-18T11:05:46.953Z,36.40
2018-02-18T11:08:14.961Z,35.70
2018-02-18T11:10:43.904Z,36.10
2018-02-18T11:13:11.701Z,36.00
2018-02-18T11:15:39.410Z,35.30
2018-02-18T11:18:07.641Z,35.30
2018-02-18T11:20:35.366Z,35.70
2018-02-18T11:23:03.702Z,35.60
2018-02-18T11:25:31.447Z,36.10
2018-02-18T11:27:59.781Z,36.10
2018-02-18T11:30:27.645Z,36.80
2018-02-18T11:32:56.056Z,35.30
2018-02-18T11:35:23.873Z,35.10
2018-02-18T11:37:51.608Z,32.50
2018-02-18T11:40:19.537Z,34.10
2018-02-18T11:42:47.886Z,34.80
2018-02-18T11:45:17.368Z,35.10
2018-02-18T11:47:45.753Z,35.00
2018-02-18T11:50:14.686Z,35.20
2018-02-18T11:52:42.487Z,32.40
2018-02-18T11:55:10.146Z,34.40
2018-02-18T11:57:38.369Z,35.60
2018-02-18T12:00:07.087Z,36.00
2018-02-18T12:02:34.830Z,36.00
2018-02-18T12:05:02.594Z,37.60
2018-02-18T12:07:31.196Z,38.90
2018-02-18T12:09:58.887Z,36.60
2018-02-18T12:12:26.697Z,36.90
2018-02-18T12:14:54.448Z,36.50
2018-02-18T12:17:23.583Z,35.40
2018-02-18T12:19:51.271Z,35.40
2018-02-18T12:22:19.001Z,35.90
2018-02-18T12:24:46.725Z,35.70
2018-02-18T12:27:14.496Z,37.20
2018-02-18T12:29:42.993Z,35.00
2018-02-18T12:32:11.554Z,35.30
2018-02-18T12:34:41.405Z,32.90
2018-02-18T12:37:10.111Z,32.90
2018-02-18T12:39:37.795Z,33.70
2018-02-18T12:42:05.573Z,36.00
2018-02-18T12:44:33.383Z,35.20
2018-02-18T12:47:01.413Z,37.50
2018-02-18T12:49:29.643Z,38.20
2018-02-18T12:51:58.238Z,38.50
2018-02-18T12:54:26.631Z,38.70
2018-02-18T12:56:54.301Z,37.20
2018-02-18T12:59:22.524Z,38.80
2018-02-18T13:01:51.247Z,40.50
2018-02-18T13:04:19.089Z,37.40
2018-02-18T13:06:47.297Z,40.20
2018-02-18T13:09:15.118Z,39.00
2018-02-18T13:11:42.970Z,38.30
2018-02-18T13:14:10.673Z,40.10
2018-02-18T13:16:38.592Z,40.70
2018-02-18T13:19:07.069Z,42.10
2018-02-18T13:21:34.811Z,42.00
2018-02-18T13:24:02.767Z,42.40
2018-02-18T13:26:31.333Z,42.80
2018-02-18T13:28:59.012Z,41.90
2018-02-18T13:31:26.750Z,40.30
2018-02-18T13:33:54.551Z,39.10
2018-02-18T13:36:22.671Z,37.60
2018-02-18T13:38:50.404Z,36.50
2018-02-18T13:41:18.375Z,35.90
2018-02-18T13:43:47.419Z,36.00
2018-02-18T13:46:15.328Z,36.00
2018-02-18T13:48:43.647Z,35.80
2018-02-18T13:51:11.325Z,35.70
2018-02-18T13:53:39.205Z,35.60
2018-02-18T13:56:07.803Z,34.50
2018-02-18T13:58:35.448Z,34.40
2018-02-18T14:01:03.138Z,35.10
2018-02-18T14:03:31.514Z,36.60
2018-02-18T14:05:59.322Z,36.60
2018-02-18T14:08:27.737Z,38.20
2018-02-18T14:10:55.544Z,40.00
2018-02-18T14:13:24.145Z,39.90
2018-02-18T14:15:52.226Z,40.70
2018-02-18T14:18:20.610Z,42.60
2018-02-18T14:20:48.324Z,43.10
2018-02-18T14:23:16.186Z,43.00
2018-02-18T14:25:43.892Z,44.20
2018-02-18T14:28:11.554Z,43.70
2018-02-18T14:30:39.306Z,45.00
2018-02-18T14:33:08.374Z,44.60
2018-02-18T14:35:36.725Z,45.80
2018-02-18T14:38:04.485Z,45.80
2018-02-18T14:40:32.182Z,47.00
2018-02-18T14:43:11.608Z,45.90
2018-02-18T14:45:51.061Z,46.80
2018-02-18T14:48:30.473Z,47.40
2018-02-18T14:51:10.179Z,47.60
2018-02-18T14:53:49.785Z,48.90
2018-02-18T14:56:29.951Z,49.90
2018-02-18T14:58:57.631Z,49.90
2018-02-18T15:01:26.215Z,48.40
2018-02-18T15:03:54.744Z,49.00
2018-02-18T15:06:22.567Z,49.30
2018-02-18T15:08:50.233Z,48.40
2018-02-18T15:11:17.972Z,49.70
2018-02-18T15:13:45.669Z,49.50
2018-02-18T15:16:13.351Z,49.70
2018-02-18T15:18:41.077Z,51.20
2018-02-18T15:21:08.782Z,50.60
2018-02-18T15:23:36.508Z,51.20
2018-02-18T15:26:04.256Z,50.10
2018-02-18T15:28:32.962Z,49.70
2018-02-18T15:31:01.890Z,50.80
2018-02-18T15:33:29.688Z,50.80
2018-02-18T15:35:57.484Z,50.50
2018-02-18T15:38:25.174Z,52.10
2018-02-18T15:40:53.132Z,52.50
2018-02-18T15:43:20.893Z,51.80
2018-02-18T15:45:49.743Z,52.90
2018-02-18T15:48:17.531Z,52.50
2018-02-18T15:50:45.189Z,51.70
2018-02-18T15:53:12.955Z,52.80
2018-02-18T15:55:42.416Z,52.80
2018-02-18T15:58:10.866Z,52.80
2018-02-18T16:00:38.663Z,52.80
2018-02-18T16:03:07.183Z,53.20
2018-02-18T16:05:34.915Z,53.20
2018-02-18T16:08:03.234Z,53.60
2018-02-18T16:10:31.793Z,53.40
2018-02-18T16:13:00.020Z,53.40
2018-02-18T16:15:27.972Z,53.40
2018-02-18T16:17:55.813Z,53.20
2018-02-18T16:20:23.545Z,52.70
2018-02-18T16:22:51.211Z,53.70
2018-02-18T16:25:19.162Z,53.90
2018-02-18T16:27:46.896Z,54.30
2018-02-18T16:30:14.564Z,53.00
2018-02-18T16:32:43.225Z,53.60
2018-02-18T16:35:11.120Z,53.00
2018-02-18T16:37:39.000Z,52.80
2018-02-18T16:40:07.634Z,54.20
2018-02-18T16:42:35.342Z,54.20
2018-02-18T16:45:03.816Z,52.90
2018-02-18T16:47:31.774Z,52.80
2018-02-18T16:50:00.781Z,53.50
2018-02-18T16:52:29.576Z,53.50
2018-02-18T16:54:57.297Z,53.30
2018-02-18T16:57:25.658Z,53.80
2018-02-18T16:59:53.373Z,53.20
2018-02-18T17:02:21.081Z,54.40
2018-02-18T17:04:48.733Z,53.80
2018-02-18T17:07:16.396Z,53.70
2018-02-18T17:09:46.722Z,54.60
2018-02-18T17:12:14.596Z,54.60
2018-02-18T17:14:42.336Z,54.00
2018-02-18T17:17:10.614Z,53.50
2018-02-18T17:19:39.800Z,54.30
2018-02-18T17:22:07.730Z,54.70
2018-02-18T17:24:35.509Z,54.80
2018-02-18T17:27:03.919Z,54.60
2018-02-18T17:29:31.609Z,54.80
2018-02-18T17:32:00.176Z,56.40
2018-02-18T17:34:27.833Z,56.60
2018-02-18T17:36:55.492Z,56.50
2018-02-18T17:39:23.239Z,56.10
2018-02-18T17:41:51.826Z,57.00
2018-02-18T17:44:20.804Z,57.70
2018-02-18T17:46:49.277Z,57.40
2018-02-18T17:49:16.972Z,57.30
2018-02-18T17:51:44.615Z,57.20
2018-02-18T17:54:12.391Z,57.60
2018-02-18T17:56:41.697Z,58.30
2018-02-18T17:59:10.127Z,57.10
2018-02-18T18:01:37.883Z,57.00
2018-02-18T18:04:05.567Z,57.80
2018-02-18T18:06:33.310Z,57.50
2018-02-18T18:09:01.026Z,57.50
2018-02-18T18:11:28.716Z,57.70
2018-02-18T18:13:56.564Z,57.30
2018-02-18T18:16:24.300Z,56.80
2018-02-18T18:18:52.796Z,57.70
2018-02-18T18:21:20.604Z,57.70
2018-02-18T18:23:49.093Z,57.90
2018-02-18T18:26:16.835Z,58.60
2018-02-18T18:28:44.775Z,58.00
2018-02-18T18:31:13.469Z,58.50
2018-02-18T18:33:41.771Z,58.30
2018-02-18T18:36:10.498Z,58.70
2018-02-18T18:38:38.297Z,58.70
2018-02-18T18:41:06.076Z,58.80
2018-02-18T18:43:33.853Z,59.40
2018-02-18T18:46:01.621Z,59.50
2018-02-18T18:48:29.337Z,60.10
2018-02-18T18:50:58.854Z,60.40
2018-02-18T18:53:26.733Z,60.40
2018-02-18T18:55:54.649Z,60.50
2018-02-18T18:58:22.414Z,60.70
2018-02-18T19:00:51.011Z,60.30
2018-02-18T19:03:18.810Z,60.60
2018-02-18T19:05:46.484Z,61.10
2018-02-18T19:08:14.235Z,61.10
2018-02-18T19:10:41.983Z,61.20
2018-02-18T19:13:10.834Z,61.10
2018-02-18T19:15:38.554Z,61.10
2018-02-18T19:18:06.176Z,61.00
2018-02-18T19:20:34.426Z,61.70
2018-02-18T19:23:02.509Z,60.80
2018-02-18T19:25:30.342Z,61.10
2018-02-18T19:27:58.192Z,61.70
2018-02-18T19:30:25.883Z,62.00
2018-02-18T19:32:55.165Z,62.20
2018-02-18T19:35:23.453Z,62.20
2018-02-18T19:37:52.856Z,62.60
2018-02-18T19:40:21.436Z,62.40
2018-02-18T19:42:49.303Z,62.60
2018-02-18T19:45:17.627Z,62.00
2018-02-18T19:47:46.512Z,62.20
2018-02-18T19:50:15.181Z,61.60
2018-02-18T19:52:42.942Z,61.60
2018-02-18T19:55:10.795Z,61.80
2018-02-18T19:57:38.800Z,61.70
2018-02-18T20:00:06.579Z,61.50
2018-02-18T20:02:35.314Z,61.80
2018-02-18T20:05:05.012Z,62.20
2018-02-18T20:07:32.798Z,62.30
2018-02-18T20:10:00.555Z,62.50
2018-02-18T20:12:28.306Z,62.70
2018-02-18T20:14:56.102Z,62.60
2018-02-18T20:17:23.921Z,62.80
2018-02-18T20:19:51.644Z,63.10
2018-02-18T20:22:19.450Z,63.20
2018-02-18T20:24:47.222Z,63.10
2018-02-18T20:27:15.854Z,63.40
2018-02-18T20:29:44.432Z,63.70
2018-02-18T20:32:13.091Z,64.00
2018-02-18T20:34:41.553Z,64.10
2018-02-18T20:37:10.238Z,64.10
2018-02-18T20:39:37.919Z,64.50
2018-02-18T20:42:05.586Z,64.20
2018-02-18T20:44:33.262Z,64.20
2018-02-18T20:47:02.828Z,64.50
2018-02-18T20:49:32.685Z,64.60
2018-02-18T20:52:00.450Z,64.70
2018-02-18T20:54:29.833Z,64.20
2018-02-18T20:56:57.568Z,64.20
2018-02-18T20:59:25.983Z,64.40
2018-02-18T21:01:54.738Z,63.90
2018-02-18T21:04:23.231Z,64.20
2018-02-18T21:06:50.976Z,64.60
2018-02-18T21:09:19.393Z,64.90
2018-02-18T21:11:47.101Z,65.00
2018-02-18T21:14:15.205Z,65.00
2018-02-18T21:16:43.021Z,64.90
2018-02-18T21:19:10.796Z,64.90
2018-02-18T21:21:39.702Z,65.00
2018-02-18T21:24:07.498Z,65.30
2018-02-18T21:26:35.682Z,65.30
2018-02-18T21:29:04.185Z,65.50
2018-02-18T21:31:36.532Z,65.30
2018-02-18T21:34:04.601Z,65.40
2018-02-18T21:36:35.916Z,65.20
2018-02-18T21:39:03.836Z,65.20
2018-02-18T21:41:35.041Z,65.50
2018-02-18T21:44:02.756Z,65.50
2018-02-18T21:46:31.341Z,65.50
2018-02-18T21:48:59.100Z,65.30
2018-02-18T21:51:27.741Z,65.70
2018-02-18T21:53:55.617Z,65.60
2018-02-18T21:56:23.794Z,65.60
2018-02-18T21:58:51.632Z,65.60
2018-02-18T22:01:20.089Z,65.70
2018-02-18T22:03:48.007Z,66.00
2018-02-18T22:06:17.097Z,66.30
2018-02-18T22:08:46.344Z,66.30
2018-02-18T22:11:15.899Z,66.20
2018-02-18T22:13:43.629Z,66.20
2018-02-18T22:16:11.315Z,66.00
2018-02-18T22:18:39.062Z,65.90
2018-02-18T22:21:06.872Z,65.80
2018-02-18T22:23:34.570Z,65.80
2018-02-18T22:26:02.285Z,65.90
2018-02-18T22:28:30.013Z,65.80
2018-02-18T22:30:58.119Z,65.90
2018-02-18T22:33:26.116Z,66.20
2018-02-18T22:35:54.689Z,66.30
2018-02-18T22:38:23.429Z,66.40
2018-02-18T22:40:51.314Z,66.50
2018-02-18T22:43:19.601Z,66.50
2018-02-18T22:45:47.412Z,66.70
2018-02-18T22:48:15.585Z,66.70
2018-02-18T22:50:43.426Z,66.70
2018-02-18T22:53:12.225Z,66.70
2018-02-18T22:55:40.994Z,66.70
2018-02-18T22:58:08.753Z,66.70
2018-02-18T23:00:36.467Z,66.70
2018-02-18T23:03:04.176Z,66.40
2018-02-18T23:05:37.593Z,66.30
2018-02-18T23:08:05.490Z,66.50
2018-02-18T23:10:34.105Z,66.30
2018-02-18T23:13:02.085Z,66.20
2018-02-18T23:15:29.950Z,66.20
2018-02-18T23:17:58.433Z,66.30
2018-02-18T23:20:26.901Z,66.10
2018-02-18T23:22:54.961Z,66.10
2018-02-18T23:25:23.154Z,66.10
2018-02-18T23:27:50.937Z,66.20
2018-02-18T23:30:20.631Z,66.20
2018-02-18T23:32:49.611Z,66.10
2018-02-18T23:35:18.102Z,66.20
2018-02-18T23:37:45.903Z,66.30
2018-02-18T23:40:14.542Z,66.70
2018-02-18T23:42:43.266Z,66.70
2018-02-18T23:45:11.200Z,66.70
2018-02-18T23:47:39.277Z,66.60
2018-02-18T23:50:08.439Z,66.70
2018-02-18T23:52:37.715Z,66.50
2018-02-18T23:55:06.064Z,66.60
2018-02-18T23:57:33.873Z,66.80
